Latest Weather Observations for Maryborough

IDQ60801

Issued at 5:32 pm EST Tuesday 17 May 2022 (issued every 10 minutes, with the page automatically refreshed every 10 minutes)

About weather observations | Map of weather stations | Latest weather observations for QLD | Other Formats
Station Details ID: 040126 Name: MARYBOROUGH Lat: -25.51 Lon: 152.72 Height: 8.98 m
Data from the previous 72 hours. | See also: Recent months at Maryborough
Date/Time
EST
Temp
°C
App
Temp
°C
Dew
Point
°C
Rel
Hum
%
Delta-T
°C
Wind Press
QNH
hPa
Press
MSL
hPa
Rain since
9am
mm
Dir  Spd
km/h
Gust
km/h
Spd
kts
Gust
kts
17/05:30pm 23.6 26.3 23.4 99 0.1 SE 15 20 8 11 1015.4 1015.3 -
17/05:00pm 23.9 26.7 23.7 99 0.1 ESE 15 20 8 11 1015.0 1014.9 -
17/04:30pm 24.6 28.4 24.1 97 0.3 ESE 11 17 6 9 1014.7 1014.6 -
17/04:00pm 25.0 28.1 24.1 95 0.6 ESE 15 22 8 12 1014.3 1014.2 -
17/03:30pm 25.4 28.1 24.2 93 0.8 ESE 17 22 9 12 1014.1 1014.0 -
17/03:00pm 26.3 29.3 24.7 91 1.1 ESE 17 26 9 14 1013.8 1013.7 -
17/02:30pm 28.0 31.0 24.6 82 2.4 SE 17 20 9 11 1013.8 1013.7 -
17/02:00pm 27.6 31.3 24.6 84 2.1 ESE 13 24 7 13 1013.8 1013.7 -
17/01:30pm 28.2 32.4 25.4 85 2.0 SE 13 20 7 11 1014.0 1013.9 -
17/01:00pm 27.7 31.9 25.3 87 1.7 SSE 13 19 7 10 1014.4 1014.3 -
17/12:30pm 28.2 33.5 25.8 87 1.7 SE 9 15 5 8 1014.6 1014.5 -
17/12:00pm 27.7 33.2 26.1 91 1.1 S 9 13 5 7 1014.9 1014.8 -
17/11:30am 27.1 32.3 25.7 92 1.0 SSE 9 15 5 8 1015.3 1015.2 -
17/11:00am 26.7 32.0 25.8 95 0.6 S 9 15 5 8 1015.7 1015.6 -
17/10:30am 26.0 31.2 25.7 98 0.2 SSW 9 13 5 7 1016.1 1016.0 -
17/10:00am 25.7 30.8 25.5 99 0.1 SSE 9 13 5 7 1016.5 1016.4 -
17/09:58am 25.2 29.9 25.0 99 0.1 SSE 9 11 5 6 1016.6 1016.5 -
17/09:46am 25.1 29.8 24.9 99 0.1 S 9 15 5 8 1016.6 1016.5 -
17/09:30am 25.6 30.2 25.4 99 0.1 SSW 11 15 6 8 1016.4 1016.3 -
17/09:00am 24.8 29.0 24.8 100 0.0 S 11 15 6 8 1016.4 1016.3 -
17/08:30am 23.3 26.3 23.3 100 0.0 S 13 19 7 10 1016.1 1016.0 -
17/08:00am 22.7 25.7 22.7 100 0.0 S 11 15 6 8 1015.9 1015.8 -
17/07:30am 22.3 25.5 22.3 100 0.0 SSW 9 13 5 7 1015.8 1015.7 -
17/07:17am 22.0 26.7 22.0 100 0.0 CALM 0 7 0 4 1015.8 1015.7 -
17/07:01am 21.9 25.4 21.9 100 0.0 S 6 7 3 4 1015.6 1015.5 -
17/07:00am 21.8 25.3 21.8 100 0.0 S 6 7 3 4 1015.6 1015.5 -
17/06:32am 21.7 24.6 21.7 100 0.0 SSW 9 11 5 6 1015.2 1015.1 -
17/06:30am 21.7 24.6 21.7 100 0.0 SSW 9 11 5 6 1015.2 1015.1 -
17/06:00am 21.6 24.0 21.6 100 0.0 SSW 11 15 6 8 1014.8 1014.7 -
17/05:50am 21.7 24.6 21.7 100 0.0 SSW 9 13 5 7 1014.7 1014.6 -
17/05:30am 21.6 24.8 21.6 100 0.0 SSW 7 11 4 6 1014.6 1014.5 -
17/05:00am 21.5 24.6 21.5 100 0.0 S 7 9 4 5 1014.2 1014.1 -
17/04:54am 21.3 24.3 21.3 100 0.0 S 7 9 4 5 1014.1 1014.0 -
17/04:48am 21.2 23.8 21.2 100 0.0 S 9 11 5 6 1014.0 1013.9 -
17/04:36am 20.8 23.6 20.8 100 0.0 S 7 9 4 5 1013.9 1013.8 -
17/04:30am 21.2 24.8 21.2 100 0.0 S 4 7 2 4 1013.9 1013.8 -
17/04:19am 21.2 25.5 21.2 100 0.0 CALM 0 0 0 0 1013.9 1013.8 -
17/04:14am 21.3 25.3 21.3 100 0.0 S 2 7 1 4 1013.8 1013.7 -
17/04:00am 21.1 25.4 21.1 100 0.0 CALM 0 0 0 0 1013.7 1013.6 -
17/03:30am 21.5 26.0 21.5 100 0.0 CALM 0 0 0 0 1013.6 1013.5 -
17/03:07am 21.8 25.3 21.8 100 0.0 S 6 7 3 4 1013.6 1013.5 -
17/03:00am 21.8 26.0 21.8 100 0.0 S 2 7 1 4 1013.7 1013.6 -
17/02:30am 21.9 25.4 21.9 100 0.0 S 6 7 3 4 1013.9 1013.8 -
17/02:00am 21.8 26.4 21.8 100 0.0 CALM 0 0 0 0 1014.0 1013.9 -
17/01:44am 21.7 26.3 21.7 100 0.0 CALM 0 0 0 0 1014.2 1014.1 -
17/01:30am 21.7 26.3 21.7 100 0.0 CALM 0 0 0 0 1014.2 1014.1 -
17/01:00am 21.5 24.8 21.5 100 0.0 S 6 7 3 4 1014.4 1014.3 -
17/12:30am 21.7 24.6 21.7 100 0.0 S 9 13 5 7 1014.7 1014.6 -
17/12:00am 21.6 24.4 21.6 100 0.0 S 9 11 5 6 1014.7 1014.6 -
 
Date/Time
EST
Temp
°C
App
Temp
°C
Dew
Point
°C
Rel
Hum
%
Delta-T
°C
Wind Press
QNH
hPa
Press
MSL
hPa
Rain since
9am
mm
Dir  Spd
km/h
Gust
km/h
Spd
kts
Gust
kts
16/11:30pm 21.1 24.2 21.1 100 0.0 ENE 6 7 3 4 1014.4 1014.3 -
16/11:00pm 20.6 24.2 20.6 100 0.0 ENE 2 6 1 3 1014.6 1014.5 -
16/10:30pm 20.4 24.3 20.4 100 0.0 CALM 0 0 0 0 1014.5 1014.4 -
16/10:10pm 20.3 24.2 20.3 100 0.0 CALM 0 0 0 0 1014.4 1014.3 -
16/10:00pm 20.6 24.6 20.6 100 0.0 CALM 0 0 0 0 1014.5 1014.4 -
16/09:30pm 20.9 25.1 20.9 100 0.0 CALM 0 0 0 0 1014.4 1014.3 -
16/09:00pm 21.3 24.5 21.3 100 0.0 ENE 6 7 3 4 1014.3 1014.2 -
16/08:30pm 21.4 25.4 21.4 100 0.0 ENE 2 6 1 3 1014.2 1014.1 -
16/08:00pm 20.9 25.1 20.9 100 0.0 CALM 0 0 0 0 1013.8 1013.7 -
16/07:30pm 21.3 25.7 21.3 100 0.0 CALM 0 0 0 0 1013.5 1013.4 -
16/07:00pm 21.8 26.4 21.8 100 0.0 CALM 0 0 0 0 1013.1 1013.0 -
16/06:51pm 21.8 26.4 21.8 100 0.0 CALM 0 0 0 0 1013.1 1013.0 -
16/06:30pm 21.5 26.0 21.5 100 0.0 CALM 0 0 0 0 1013.0 1012.9 -
16/06:00pm 22.9 28.1 22.9 100 0.0 CALM 0 0 0 0 1012.8 1012.7 -
16/05:30pm 23.8 28.4 23.8 100 0.0 ENE 6 7 3 4 1012.5 1012.4 -
16/05:00pm 24.9 30.0 24.7 99 0.1 ENE 6 9 3 5 1012.5 1012.4 -
16/04:30pm 26.3 31.8 25.6 96 0.5 E 7 11 4 6 1012.2 1012.1 -
16/04:00pm 27.2 32.6 26.0 93 0.8 ENE 9 13 5 7 1012.1 1012.0 -
16/03:30pm 26.6 31.5 25.2 92 1.0 E 9 13 5 7 1012.1 1012.0 -
16/03:00pm 27.7 33.2 26.8 95 0.6 E 11 17 6 9 1011.9 1011.8 -
16/02:30pm 29.4 36.0 27.0 87 1.7 E 6 9 3 5 1011.8 1011.7 -
16/02:00pm 28.7 35.4 26.5 88 1.6 SSE 4 9 2 5 1011.9 1011.8 -
16/01:30pm 29.0 35.9 26.8 88 1.6 N 4 9 2 5 1012.1 1012.0 -
16/01:00pm 27.9 34.3 26.1 90 1.3 N 4 7 2 4 1012.5 1012.4 -
16/12:30pm 27.5 34.1 26.4 94 0.8 SSE 4 7 2 4 1012.7 1012.6 -
16/12:00pm 28.6 36.0 27.5 94 0.8 SW 4 7 2 4 1013.0 1012.9 -
16/11:30am 27.4 34.5 27.1 98 0.2 SW 4 11 2 6 1013.4 1013.3 -
16/11:00am 25.9 31.7 25.7 99 0.1 SSE 6 11 3 6 1013.7 1013.6 -
16/10:30am 25.5 30.6 25.5 100 0.0 S 9 13 5 7 1013.8 1013.7 0.0
16/10:14am 25.1 29.9 25.1 100 0.0 SSE 9 15 5 8 1013.9 1013.8 0.0
16/10:00am 25.7 31.3 25.7 100 0.0 SE 7 11 4 6 1013.9 1013.8 0.0
16/09:30am 23.6 28.1 23.6 100 0.0 SSE 6 7 3 4 1014.1 1014.0 0.0
16/09:00am 23.3 27.6 23.3 100 0.0 SSE 6 7 3 4 1014.2 1014.1 0.2
16/08:30am 22.9 26.8 22.9 100 0.0 SW 7 7 4 4 1014.0 1013.9 0.2
16/08:00am 22.3 26.0 22.3 100 0.0 SW 6 9 3 5 1013.8 1013.7 0.2
16/07:36am 22.1 26.5 22.1 100 0.0 SSW 2 6 1 3 1013.6 1013.5 0.2
16/07:30am 22.2 27.0 22.2 100 0.0 CALM 0 0 0 0 1013.5 1013.4 0.2
16/07:12am 21.9 25.4 21.9 100 0.0 SSW 6 9 3 5 1013.2 1013.1 0.0
16/07:00am 21.9 24.9 21.9 100 0.0 SSW 9 11 5 6 1013.0 1012.9 0.0
16/06:30am 21.7 24.9 21.7 100 0.0 SSW 7 11 4 6 1012.7 1012.6 0.0
16/06:00am 21.7 24.2 21.7 100 0.0 SW 11 13 6 7 1012.2 1012.1 0.0
16/05:38am 21.8 24.7 21.8 100 0.0 S 9 11 5 6 1012.1 1012.0 0.0
16/05:30am 21.8 25.1 21.8 100 0.0 S 7 9 4 5 1012.1 1012.0 0.0
16/05:00am 21.8 24.7 21.8 100 0.0 S 9 13 5 7 1011.8 1011.7 0.0
16/04:30am 21.8 25.3 21.8 100 0.0 SSW 6 9 3 5 1011.7 1011.6 0.0
16/04:00am 21.7 24.9 21.7 100 0.0 SSW 7 9 4 5 1011.6 1011.5 0.0
16/03:30am 21.6 24.8 21.6 100 0.0 S 7 9 4 5 1011.6 1011.5 0.0
16/03:00am 21.5 23.9 21.5 100 0.0 SSW 11 15 6 8 1011.5 1011.4 0.0
16/02:30am 21.7 24.6 21.7 100 0.0 SSW 9 13 5 7 1011.6 1011.5 0.0
16/02:00am 21.8 25.1 21.8 100 0.0 S 7 9 4 5 1011.7 1011.6 0.0
16/01:30am 21.8 25.1 21.8 100 0.0 ESE 7 9 4 5 1011.9 1011.8 0.0
16/01:00am 20.8 23.6 20.8 100 0.0 E 7 9 4 5 1012.0 1011.9 0.0
16/12:30am 21.0 25.2 21.0 100 0.0 CALM 0 0 0 0 1012.4 1012.3 0.0
16/12:00am 21.3 25.7 21.3 100 0.0 CALM 0 0 0 0 1012.8 1012.7 0.0
 
Date/Time
EST
Temp
°C
App
Temp
°C
Dew
Point
°C
Rel
Hum
%
Delta-T
°C
Wind Press
QNH
hPa
Press
MSL
hPa
Rain since
9am
mm
Dir  Spd
km/h
Gust
km/h
Spd
kts
Gust
kts
15/11:30pm 21.2 25.5 21.2 100 0.0 CALM 0 0 0 0 1013.0 1012.9 0.0
15/11:10pm 21.1 25.4 21.1 100 0.0 CALM 0 0 0 0 1012.9 1012.8 0.0
15/11:00pm 21.0 25.2 21.0 100 0.0 CALM 0 2 0 1 1012.9 1012.8 0.0
15/10:44pm 20.7 24.8 20.7 100 0.0 CALM 0 0 0 0 1013.2 1013.1 0.0
15/10:30pm 20.2 24.0 20.2 100 0.0 CALM 0 0 0 0 1013.1 1013.0 0.0
15/10:12pm 20.1 23.9 20.1 100 0.0 CALM 0 0 0 0 1013.1 1013.0 0.0
15/10:00pm 20.1 23.9 20.1 100 0.0 CALM 0 0 0 0 1013.1 1013.0 0.0
15/09:30pm 20.3 24.2 20.3 100 0.0 CALM 0 4 0 2 1012.9 1012.8 0.0
15/09:19pm 20.5 23.7 20.5 100 0.0 E 4 6 2 3 1012.9 1012.8 0.0
15/09:00pm 20.6 23.3 20.6 100 0.0 E 7 7 4 4 1012.7 1012.6 0.0
15/08:54pm 20.5 23.1 20.5 100 0.0 E 7 9 4 5 1012.8 1012.7 0.0
15/08:30pm 20.5 24.5 20.5 100 0.0 CALM 0 0 0 0 1012.7 1012.6 0.0
15/08:25pm 20.5 24.5 20.5 100 0.0 CALM 0 0 0 0 1012.7 1012.6 0.0
15/08:00pm 20.7 24.0 20.7 100 0.0 E 4 7 2 4 1012.5 1012.4 0.0
15/07:30pm 20.9 23.9 20.9 100 0.0 ESE 6 7 3 4 1012.2 1012.1 0.0
15/07:00pm 21.4 25.8 21.4 100 0.0 CALM 0 0 0 0 1011.8 1011.7 0.0
15/06:30pm 22.0 25.6 22.0 100 0.0 ENE 6 7 3 4 1011.6 1011.5 0.0
15/06:00pm 22.4 26.1 22.2 99 0.1 E 6 6 3 3 1011.2 1011.1 0.0
15/05:30pm 23.6 28.0 23.4 99 0.1 ESE 6 7 3 4 1010.9 1010.8 0.0
15/05:00pm 25.7 30.0 23.6 88 1.4 ESE 7 11 4 6 1010.5 1010.4 0.0
15/04:30pm 27.3 33.5 24.6 85 1.9 CALM 0 0 0 0 1010.3 1010.2 0.0
15/04:00pm 27.5 32.9 23.3 78 2.9 CALM 0 0 0 0 1009.9 1009.8 0.0
15/03:30pm 26.4 31.3 23.7 85 1.9 E 4 6 2 3 1009.9 1009.8 0.0
15/03:00pm 28.3 33.7 23.9 77 3.0 NE 2 7 1 4 1009.8 1009.7 0.0
15/02:30pm 28.5 33.3 24.1 77 3.0 NNE 6 9 3 5 1010.0 1009.9 0.0
15/02:00pm 28.4 33.0 24.2 78 2.9 NNE 7 9 4 5 1010.3 1010.2 0.0
15/01:30pm 28.1 32.9 24.5 81 2.5 NNE 7 13 4 7 1010.8 1010.7 0.0
15/01:00pm 28.7 33.8 24.9 80 2.7 NE 7 11 4 6 1011.2 1011.1 0.0
15/12:30pm 27.8 33.4 25.4 87 1.7 ESE 6 15 3 8 1011.4 1011.3 0.0
15/12:00pm 27.1 31.5 24.4 85 1.9 ESE 9 15 5 8 1012.0 1011.9 0.0
15/11:30am 26.2 30.7 24.6 91 1.1 S 9 13 5 7 1012.3 1012.2 0.0
15/11:00am 26.4 31.2 24.2 88 1.5 SE 6 11 3 6 1012.7 1012.6 0.0
15/10:30am 26.5 31.4 25.3 93 0.8 S 9 13 5 7 1013.0 1012.9 0.0
15/10:00am 24.9 29.4 24.6 98 0.2 SE 9 13 5 7 1013.1 1013.0 0.0
15/09:30am 24.1 28.3 24.1 100 0.0 S 9 11 5 6 1013.4 1013.3 0.0
15/09:28am 24.1 28.3 24.1 100 0.0 SSE 9 11 5 6 1013.4 1013.3 0.0
15/09:00am 22.9 26.4 22.9 100 0.0 SSE 9 13 5 7 1013.5 1013.4 0.2
15/08:30am 22.4 25.3 22.4 100 0.0 SSE 11 13 6 7 1013.3 1013.2 0.2
15/08:26am 22.1 24.8 22.1 100 0.0 SE 11 13 6 7 1013.3 1013.2 0.2
15/08:00am 21.8 24.7 21.8 100 0.0 SE 9 11 5 6 1013.2 1013.1 0.2
15/07:30am 21.3 24.0 21.3 100 0.0 SSE 9 13 5 7 1013.0 1012.9 0.0
15/07:00am 20.9 23.9 20.9 100 0.0 S 6 7 3 4 1012.7 1012.6 0.0
15/06:34am 20.0 23.7 20.0 100 0.0 CALM 0 0 0 0 1012.5 1012.4 0.0
15/06:30am 19.8 23.4 19.8 100 0.0 CALM 0 0 0 0 1012.5 1012.4 0.0
15/06:12am 20.3 24.2 20.3 100 0.0 CALM 0 0 0 0 1012.4 1012.3 0.0
15/06:00am 20.1 23.9 20.1 100 0.0 CALM 0 0 0 0 1012.3 1012.2 0.0
15/05:30am 20.4 23.0 20.4 100 0.0 S 7 7 4 4 1011.9 1011.8 0.0
15/05:28am 20.4 23.2 20.4 100 0.0 S 6 7 3 4 1011.8 1011.7 0.0
15/05:00am 21.3 24.9 21.3 100 0.0 S 4 7 2 4 1011.5 1011.4 0.0
15/04:30am 21.4 24.5 21.4 100 0.0 SSW 7 9 4 5 1011.2 1011.1 0.0
15/04:10am 21.5 24.3 21.5 100 0.0 S 9 11 5 6 1011.1 1011.0 0.0
15/04:00am 21.7 24.6 21.7 100 0.0 S 9 11 5 6 1011.0 1010.9 0.0
15/03:36am 21.7 25.1 21.7 100 0.0 SW 6 7 3 4 1010.9 1010.8 0.0
15/03:30am 21.7 25.1 21.7 100 0.0 SW 6 7 3 4 1010.9 1010.8 0.0
15/03:00am 21.8 25.3 21.8 100 0.0 SE 6 7 3 4 1011.0 1010.9 0.0
15/02:56am 21.8 25.3 21.8 100 0.0 SE 6 7 3 4 1011.0 1010.9 0.0
15/02:50am 21.7 25.9 21.7 100 0.0 SE 2 7 1 4 1011.0 1010.9 0.0
15/02:30am 21.2 25.5 21.2 100 0.0 CALM 0 0 0 0 1011.0 1010.9 0.0
15/02:00am 21.5 26.0 21.5 100 0.0 CALM 0 0 0 0 1011.1 1011.0 0.0
15/01:39am 21.7 26.3 21.7 100 0.0 CALM 0 0 0 0 1011.3 1011.2 0.0
15/01:30am 22.0 26.7 22.0 100 0.0 CALM 0 0 0 0 1011.2 1011.1 0.0
15/01:00am 22.2 27.0 22.2 100 0.0 CALM 0 6 0 3 1011.5 1011.4 0.0
15/12:47am 22.2 26.3 22.2 100 0.0 SE 4 6 2 3 1011.5 1011.4 0.0
15/12:30am 22.3 26.4 22.3 100 0.0 SE 4 6 2 3 1011.7 1011.6 0.0
15/12:00am 22.3 27.2 22.3 100 0.0 CALM 0 0 0 0 1011.8 1011.7 0.0
 
Date/Time
EST
Temp
°C
App
Temp
°C
Dew
Point
°C
Rel
Hum
%
Delta-T
°C
Wind Press
QNH
hPa
Press
MSL
hPa
Rain since
9am
mm
Dir  Spd
km/h
Gust
km/h
Spd
kts
Gust
kts
14/11:54pm 22.3 27.2 22.3 100 0.0 CALM 0 0 0 0 1011.8 1011.7 0.0
14/11:30pm 22.4 27.3 22.4 100 0.0 CALM 0 4 0 2 1011.9 1011.8 0.0
14/11:00pm 22.4 27.3 22.4 100 0.0 CALM 0 0 0 0 1011.9 1011.8 0.0
14/10:30pm 22.4 26.0 22.4 100 0.0 SE 7 7 4 4 1012.0 1011.9 0.0
14/10:09pm 22.4 26.2 22.4 100 0.0 SE 6 7 3 4 1011.9 1011.8 0.0
14/10:00pm 22.4 27.0 22.4 100 0.0 SE 2 6 1 3 1011.8 1011.7 0.0
14/09:42pm 22.4 26.2 22.4 100 0.0 SE 6 7 3 4 1011.8 1011.7 0.0
14/09:30pm 22.4 26.0 22.4 100 0.0 SE 7 9 4 5 1011.8 1011.7 0.0
14/09:00pm 22.5 26.2 22.5 100 0.0 SE 7 9 4 5 1011.8 1011.7 0.0
14/08:30pm 22.5 26.2 22.5 100 0.0 ESE 7 7 4 4 1011.6 1011.5 0.0
14/08:00pm 22.6 26.5 22.6 100 0.0 ESE 6 7 3 4 1011.4 1011.3 0.0
14/07:30pm 22.9 27.0 22.9 100 0.0 E 6 9 3 5 1011.2 1011.1 0.0
14/07:00pm 22.8 27.6 22.8 100 0.0 E 2 6 1 3 1010.8 1010.7 0.0
14/06:30pm 23.3 27.4 23.3 100 0.0 E 7 13 4 7 1010.4 1010.3 0.0
14/06:16pm 23.4 27.6 23.4 100 0.0 ESE 7 11 4 6 1010.2 1010.1 0.0
14/06:00pm 23.7 28.0 23.7 100 0.0 ENE 7 11 4 6 1010.0 1009.9 0.0

Other formats

Comma delimited format used in spreadsheet applications
http://www.bom.gov.au/fwo/IDQ60801/IDQ60801.94567.axf

JavaScript Object Notation format (JSON) in row-major order
http://www.bom.gov.au/fwo/IDQ60801/IDQ60801.94567.json

Data quality

Most of these data are generated automatically and are frequently updated. Quality checks on data are not normally performed. It is possible for incorrect values to appear. Refer to information at About Latest Weather Observations and please check the disclaimer before using these data.